createdAt,value
2019-04-29T00:01:40.503Z,14.68
2019-04-29T00:04:12.294Z,14.71
2019-04-29T00:06:44.368Z,14.69
2019-04-29T00:09:17.539Z,14.70
2019-04-29T00:11:49.220Z,14.69
2019-04-29T00:14:20.763Z,14.65
2019-04-29T00:17:03.515Z,14.67
2019-04-29T00:19:45.025Z,14.64
2019-04-29T00:22:16.598Z,14.55
2019-04-29T00:24:48.364Z,14.50
2019-04-29T00:27:21.034Z,14.28
2019-04-29T00:29:53.088Z,14.47
2019-04-29T00:32:25.263Z,14.43
2019-04-29T00:34:57.207Z,14.40
2019-04-29T00:37:43.092Z,14.30
2019-04-29T00:40:32.174Z,14.28
2019-04-29T00:43:08.446Z,14.28
2019-04-29T00:45:40.095Z,14.31
2019-04-29T00:48:12.077Z,14.28
2019-04-29T00:50:43.627Z,14.28
2019-04-29T00:53:15.506Z,14.29
2019-04-29T00:55:47.329Z,14.25
2019-04-29T00:58:19.095Z,14.22
2019-04-29T01:00:51.090Z,14.25
2019-04-29T01:03:22.815Z,14.24
2019-04-29T01:05:54.710Z,14.22
2019-04-29T01:08:26.260Z,14.27
2019-04-29T01:10:57.869Z,14.22
2019-04-29T01:13:29.637Z,14.24
2019-04-29T01:16:01.430Z,14.27
2019-04-29T01:18:33.190Z,14.24
2019-04-29T01:21:05.019Z,14.25
2019-04-29T01:23:36.948Z,14.28
2019-04-29T01:26:26.963Z,14.29
2019-04-29T01:29:00.092Z,14.26
2019-04-29T01:31:32.849Z,14.27
2019-04-29T01:34:06.490Z,14.27
2019-04-29T01:36:40.010Z,14.30
2019-04-29T01:39:13.335Z,14.27
2019-04-29T01:41:59.020Z,14.27
2019-04-29T01:44:32.199Z,14.24
2019-04-29T01:47:04.101Z,14.20
2019-04-29T01:49:35.849Z,14.17
2019-04-29T01:52:07.635Z,14.13
2019-04-29T01:54:39.599Z,14.04
2019-04-29T01:57:11.928Z,14.02
2019-04-29T01:59:43.677Z,14.03
2019-04-29T02:02:15.439Z,14.03
2019-04-29T02:04:47.282Z,14.06
2019-04-29T02:07:19.483Z,14.09
2019-04-29T02:09:55.714Z,14.06
2019-04-29T02:12:27.459Z,14.10
2019-04-29T02:15:00.457Z,14.11
2019-04-29T02:17:32.374Z,14.09
2019-04-29T02:20:07.218Z,14.09
2019-04-29T02:22:40.606Z,14.09
2019-04-29T02:25:13.983Z,14.04
2019-04-29T02:27:45.822Z,14.06
2019-04-29T02:30:37.149Z,14.03
2019-04-29T02:33:09.105Z,14.02
2019-04-29T02:35:41.463Z,13.99
2019-04-29T02:38:17.984Z,13.98
2019-04-29T02:40:54.076Z,13.96
2019-04-29T02:43:30.852Z,13.99
2019-04-29T02:46:02.572Z,13.98
2019-04-29T02:48:35.189Z,13.96
2019-04-29T02:51:07.031Z,13.88
2019-04-29T02:53:38.917Z,13.91
2019-04-29T02:56:10.734Z,13.86
2019-04-29T02:58:44.176Z,13.84
2019-04-29T03:01:26.171Z,13.82
2019-04-29T03:03:59.674Z,13.82
2019-04-29T03:06:31.501Z,13.71
2019-04-29T03:09:03.387Z,13.73
2019-04-29T03:11:37.096Z,13.68
2019-04-29T03:14:09.186Z,13.64
2019-04-29T03:16:41.017Z,13.66
2019-04-29T03:19:14.741Z,13.71
2019-04-29T03:21:48.075Z,13.81
2019-04-29T03:24:19.886Z,13.83
2019-04-29T03:26:51.994Z,13.82
2019-04-29T03:29:24.177Z,13.81
2019-04-29T03:31:57.419Z,13.90
2019-04-29T03:34:29.817Z,13.94
2019-04-29T03:37:02.079Z,13.86
2019-04-29T03:39:35.400Z,14.06
2019-04-29T03:42:07.657Z,14.04
2019-04-29T03:44:40.654Z,13.99
2019-04-29T03:47:12.495Z,14.02
2019-04-29T03:49:44.576Z,14.12
2019-04-29T03:52:16.249Z,14.27
2019-04-29T03:54:48.369Z,15.54
2019-04-29T03:57:20.513Z,16.96
2019-04-29T03:59:52.267Z,18.37
2019-04-29T04:02:37.760Z,19.73
2019-04-29T04:05:14.069Z,20.79
2019-04-29T04:07:47.319Z,21.99
2019-04-29T04:10:19.576Z,22.43
2019-04-29T04:12:51.083Z,22.33
2019-04-29T04:15:23.484Z,21.26
2019-04-29T04:18:13.082Z,20.82
2019-04-29T04:20:45.258Z,21.91
2019-04-29T04:23:17.120Z,23.60
2019-04-29T04:25:49.007Z,24.59
2019-04-29T04:28:20.711Z,25.20
2019-04-29T04:30:52.210Z,25.63
2019-04-29T04:33:23.689Z,25.66
2019-04-29T04:35:56.151Z,26.04
2019-04-29T04:38:27.725Z,26.42
2019-04-29T04:41:07.487Z,27.07
2019-04-29T04:43:39.068Z,27.63
2019-04-29T04:46:10.179Z,27.58
2019-04-29T04:48:41.787Z,27.59
2019-04-29T04:51:13.958Z,28.66
2019-04-29T04:53:45.907Z,27.70
2019-04-29T04:56:17.430Z,26.25
2019-04-29T04:58:48.621Z,24.70
2019-04-29T05:01:19.983Z,26.70
2019-04-29T05:03:51.894Z,28.43
2019-04-29T05:06:24.391Z,30.47
2019-04-29T05:08:56.382Z,30.72
2019-04-29T05:11:28.305Z,30.45
2019-04-29T05:13:59.794Z,31.33
2019-04-29T05:16:32.436Z,33.50
2019-04-29T05:19:04.100Z,33.25
2019-04-29T05:21:36.704Z,33.76
2019-04-29T05:24:08.921Z,33.49
2019-04-29T05:26:40.999Z,34.24
2019-04-29T05:29:12.759Z,32.32
2019-04-29T05:31:44.679Z,31.35
2019-04-29T05:34:17.095Z,29.75
2019-04-29T05:36:53.759Z,29.79
2019-04-29T05:39:27.441Z,30.73
2019-04-29T05:41:59.205Z,32.55
2019-04-29T05:44:32.837Z,33.78
2019-04-29T05:47:06.017Z,35.23
2019-04-29T05:49:42.816Z,34.07
2019-04-29T05:52:15.951Z,30.67
2019-04-29T05:54:48.097Z,27.50
2019-04-29T05:57:20.505Z,28.06
2019-04-29T05:59:53.432Z,27.40
2019-04-29T06:02:33.698Z,26.75
2019-04-29T06:04:59.052Z,29.10
2019-04-29T06:07:30.858Z,27.91
2019-04-29T06:10:02.588Z,25.59
2019-04-29T06:12:33.609Z,23.41
2019-04-29T06:15:07.095Z,22.14
2019-04-29T06:17:39.954Z,21.18
2019-04-29T06:20:13.033Z,20.02
2019-04-29T06:22:46.091Z,19.87
2019-04-29T06:25:18.068Z,19.09
2019-04-29T06:27:49.602Z,18.37
2019-04-29T06:30:21.249Z,18.59
2019-04-29T06:32:53.269Z,19.81
2019-04-29T06:35:24.979Z,20.72
2019-04-29T06:37:58.188Z,19.59
2019-04-29T06:40:30.721Z,19.39
2019-04-29T06:43:03.545Z,19.27
2019-04-29T06:45:35.659Z,18.47
2019-04-29T06:48:07.852Z,18.52
2019-04-29T06:50:39.610Z,19.04
2019-04-29T06:53:11.610Z,19.02
2019-04-29T06:55:43.428Z,18.60
2019-04-29T06:58:15.394Z,18.86
2019-04-29T07:00:47.154Z,19.34
2019-04-29T07:03:21.002Z,19.20
2019-04-29T07:05:52.656Z,19.06
2019-04-29T07:08:25.143Z,18.70
2019-04-29T07:11:01.111Z,18.38
2019-04-29T07:13:30.692Z,18.46
2019-04-29T07:16:02.579Z,18.62
2019-04-29T07:18:34.647Z,19.09
2019-04-29T07:21:07.476Z,19.91
2019-04-29T07:23:40.273Z,20.33
2019-04-29T07:26:12.930Z,20.35
2019-04-29T07:28:48.790Z,20.44
2019-04-29T07:31:18.950Z,20.66
2019-04-29T07:33:53.692Z,21.01
2019-04-29T07:36:23.949Z,20.82
2019-04-29T07:38:56.709Z,21.08
2019-04-29T07:41:28.985Z,21.28
2019-04-29T07:44:00.725Z,21.01
2019-04-29T07:46:56.049Z,20.71
2019-04-29T07:49:17.699Z,20.20
2019-04-29T07:51:50.385Z,20.22
2019-04-29T07:54:22.371Z,20.22
2019-04-29T07:56:54.509Z,20.51
2019-04-29T07:59:26.280Z,21.01
2019-04-29T08:01:59.833Z,20.95
2019-04-29T08:04:32.641Z,21.34
2019-04-29T08:07:04.716Z,21.14
2019-04-29T08:09:39.968Z,21.25
2019-04-29T08:12:11.736Z,21.06
2019-04-29T08:14:44.752Z,20.68
2019-04-29T08:17:16.527Z,20.50
2019-04-29T08:19:48.283Z,20.68
2019-04-29T08:22:22.763Z,20.41
2019-04-29T08:24:54.518Z,20.18
2019-04-29T08:27:39.241Z,20.66
2019-04-29T08:30:00.624Z,20.48
2019-04-29T08:32:36.296Z,20.20
2019-04-29T08:35:07.835Z,19.94
2019-04-29T08:37:39.686Z,19.95
2019-04-29T08:40:16.227Z,20.19
2019-04-29T08:43:02.570Z,20.14
2019-04-29T08:45:40.245Z,20.56
2019-04-29T08:48:12.525Z,20.27
2019-04-29T08:50:43.905Z,19.91
2019-04-29T08:53:15.146Z,20.13
2019-04-29T08:55:47.421Z,19.99
2019-04-29T08:58:18.926Z,20.20
2019-04-29T09:00:55.413Z,20.48
2019-04-29T09:03:39.373Z,19.96
2019-04-29T09:06:05.634Z,19.84
2019-04-29T09:08:32.939Z,19.48
2019-04-29T09:11:08.099Z,19.45
2019-04-29T09:13:39.302Z,19.60
2019-04-29T09:16:11.492Z,19.25
2019-04-29T09:18:43.218Z,19.50
2019-04-29T09:21:15.001Z,20.11
2019-04-29T09:23:47.284Z,19.67
2019-04-29T09:26:33.039Z,19.03
2019-04-29T09:29:23.454Z,19.17
2019-04-29T09:31:55.541Z,19.03
2019-04-29T09:34:27.021Z,18.96
2019-04-29T09:36:58.844Z,18.92
2019-04-29T09:39:42.295Z,19.17
2019-04-29T09:42:21.771Z,18.81
2019-04-29T09:45:04.563Z,18.36
2019-04-29T09:47:36.605Z,18.16
2019-04-29T09:50:08.957Z,18.05
2019-04-29T09:52:40.333Z,17.68
2019-04-29T09:55:11.876Z,17.45
2019-04-29T09:57:44.051Z,17.79
2019-04-29T10:00:36.351Z,18.24
2019-04-29T10:03:10.957Z,18.33
2019-04-29T10:05:44.600Z,18.47
2019-04-29T10:08:16.701Z,18.23
2019-04-29T10:10:48.413Z,18.06
2019-04-29T10:13:20.208Z,18.09
2019-04-29T10:16:10.153Z,17.88
2019-04-29T10:18:43.558Z,18.00
2019-04-29T10:21:21.564Z,18.01
2019-04-29T10:23:51.153Z,18.16
2019-04-29T10:26:23.019Z,18.00
2019-04-29T10:28:59.176Z,17.54
2019-04-29T10:31:31.047Z,17.42
2019-04-29T10:34:03.370Z,17.60
2019-04-29T10:36:35.301Z,17.76
2019-04-29T10:39:28.086Z,17.61
2019-04-29T10:42:01.362Z,17.40
2019-04-29T10:44:37.411Z,17.84
2019-04-29T10:47:24.510Z,17.63
2019-04-29T10:50:04.034Z,17.46
2019-04-29T10:52:38.616Z,17.70
2019-04-29T10:55:11.640Z,17.93
2019-04-29T10:57:44.774Z,17.66
2019-04-29T11:00:21.732Z,18.09
2019-04-29T11:02:53.619Z,17.86
2019-04-29T11:05:29.951Z,17.67
2019-04-29T11:08:04.421Z,17.94
2019-04-29T11:10:36.340Z,18.13
2019-04-29T11:13:08.182Z,17.99
2019-04-29T11:15:40.365Z,17.61
2019-04-29T11:18:12.515Z,17.94
2019-04-29T11:20:44.797Z,17.89
2019-04-29T11:23:24.129Z,17.92
2019-04-29T11:25:57.637Z,17.80
2019-04-29T11:28:30.283Z,17.78
2019-04-29T11:31:02.146Z,17.50
2019-04-29T11:33:47.926Z,18.02
2019-04-29T11:36:27.151Z,17.87
2019-04-29T11:38:59.046Z,18.18
2019-04-29T11:41:31.996Z,18.11
2019-04-29T11:44:03.805Z,17.97
2019-04-29T11:46:35.897Z,17.96
2019-04-29T11:49:07.544Z,17.46
2019-04-29T11:52:07.766Z,17.61
2019-04-29T11:54:18.203Z,17.84
2019-04-29T11:56:50.468Z,17.70
2019-04-29T11:59:30.150Z,17.38
2019-04-29T12:02:03.611Z,16.95
2019-04-29T12:04:42.305Z,17.26
2019-04-29T12:07:13.690Z,16.72
2019-04-29T12:09:46.163Z,16.85
2019-04-29T12:12:18.870Z,16.87
2019-04-29T12:14:51.401Z,16.76
2019-04-29T12:17:24.565Z,16.13
2019-04-29T12:20:04.252Z,16.26
2019-04-29T12:22:47.782Z,16.08
2019-04-29T12:25:09.861Z,15.93
2019-04-29T12:27:41.884Z,15.64
2019-04-29T12:30:15.947Z,15.61
2019-04-29T12:32:49.433Z,15.38
2019-04-29T12:35:25.777Z,15.75
2019-04-29T12:38:00.647Z,15.88
2019-04-29T12:40:50.222Z,15.45
2019-04-29T12:43:32.415Z,15.46
2019-04-29T12:46:21.843Z,15.02
2019-04-29T12:48:53.078Z,15.22
2019-04-29T12:51:25.743Z,14.95
2019-04-29T12:53:57.777Z,15.06
2019-04-29T12:56:34.592Z,15.21
2019-04-29T12:59:06.691Z,14.98
2019-04-29T13:01:54.191Z,14.97
2019-04-29T13:04:34.366Z,15.32
2019-04-29T13:07:11.378Z,15.18
2019-04-29T13:09:50.521Z,15.21
2019-04-29T13:12:22.711Z,15.33
2019-04-29T13:15:02.571Z,15.19
2019-04-29T13:17:34.095Z,15.15
2019-04-29T13:20:12.942Z,15.18
2019-04-29T13:22:46.436Z,15.30
2019-04-29T13:25:19.741Z,15.49
2019-04-29T13:27:56.099Z,15.08
2019-04-29T13:30:25.403Z,15.01
2019-04-29T13:33:01.190Z,14.52
2019-04-29T13:35:31.677Z,14.52
2019-04-29T13:38:03.577Z,14.61
2019-04-29T13:40:37.803Z,14.38
2019-04-29T13:43:09.335Z,14.30
2019-04-29T13:45:45.423Z,14.14
2019-04-29T13:48:24.924Z,14.49
2019-04-29T13:51:10.652Z,14.80
2019-04-29T13:53:44.468Z,14.30
2019-04-29T13:56:32.814Z,14.43
2019-04-29T13:58:50.689Z,14.44
2019-04-29T14:01:58.387Z,14.35
2019-04-29T14:04:29.347Z,14.18
2019-04-29T14:07:02.811Z,14.22
2019-04-29T14:09:38.783Z,14.17
2019-04-29T14:12:46.747Z,14.31
2019-04-29T14:14:42.189Z,14.12
2019-04-29T14:17:25.885Z,14.15
2019-04-29T14:19:47.668Z,13.82
2019-04-29T14:22:22.441Z,13.50
2019-04-29T14:24:53.277Z,13.51
2019-04-29T14:27:25.600Z,13.47
2019-04-29T14:29:57.526Z,13.37
2019-04-29T14:32:35.917Z,13.44
2019-04-29T14:35:11.846Z,13.47
2019-04-29T14:37:54.428Z,13.50
2019-04-29T14:40:14.819Z,13.56
2019-04-29T14:42:58.248Z,13.54
2019-04-29T14:45:32.407Z,13.43
2019-04-29T14:48:11.592Z,13.63
2019-04-29T14:50:54.203Z,13.34
2019-04-29T14:53:26.285Z,13.19
2019-04-29T14:55:58.161Z,13.15
2019-04-29T14:58:30.629Z,13.00
2019-04-29T15:01:05.152Z,12.81
2019-04-29T15:03:55.333Z,12.85
2019-04-29T15:06:29.075Z,12.79
2019-04-29T15:09:01.016Z,12.79
2019-04-29T15:11:35.905Z,12.77
2019-04-29T15:14:27.689Z,12.68
2019-04-29T15:17:16.569Z,12.71
2019-04-29T15:19:56.069Z,12.64
2019-04-29T15:22:41.781Z,12.49
2019-04-29T15:25:16.819Z,12.56
2019-04-29T15:27:47.574Z,12.35
2019-04-29T15:30:20.036Z,12.28
2019-04-29T15:32:53.012Z,12.12
2019-04-29T15:35:26.100Z,12.16
2019-04-29T15:37:58.105Z,12.09
2019-04-29T15:40:30.382Z,11.88
2019-04-29T15:43:01.697Z,11.88
2019-04-29T15:45:34.451Z,11.92
2019-04-29T15:48:06.162Z,11.83
2019-04-29T15:50:39.036Z,11.81
2019-04-29T15:53:10.852Z,11.82
2019-04-29T15:55:43.282Z,11.87
2019-04-29T15:58:15.317Z,11.78
2019-04-29T16:00:48.089Z,11.78
2019-04-29T16:03:20.927Z,11.75
2019-04-29T16:06:19.986Z,11.66
2019-04-29T16:08:44.156Z,11.66
2019-04-29T16:11:34.707Z,11.74
2019-04-29T16:14:09.758Z,11.58
2019-04-29T16:16:41.804Z,11.52
2019-04-29T16:19:13.535Z,11.39
2019-04-29T16:21:45.709Z,11.43
2019-04-29T16:24:26.487Z,11.35
2019-04-29T16:26:53.590Z,11.43
2019-04-29T16:29:25.913Z,11.37
2019-04-29T16:32:02.613Z,11.37
2019-04-29T16:34:31.736Z,11.40
2019-04-29T16:37:03.628Z,11.30
2019-04-29T16:39:35.468Z,11.20
2019-04-29T16:42:11.205Z,11.07
2019-04-29T16:44:44.183Z,11.09
2019-04-29T16:47:17.267Z,10.86
2019-04-29T16:49:49.301Z,10.83
2019-04-29T16:52:21.458Z,10.69
2019-04-29T16:54:53.164Z,10.48
2019-04-29T16:57:25.369Z,10.57
2019-04-29T16:59:57.647Z,10.54
2019-04-29T17:02:29.839Z,10.55
2019-04-29T17:05:02.024Z,10.60
2019-04-29T17:07:33.585Z,10.53
2019-04-29T17:10:18.784Z,10.49
2019-04-29T17:12:51.909Z,10.33
2019-04-29T17:15:26.364Z,10.28
2019-04-29T17:17:58.540Z,10.24
2019-04-29T17:20:30.446Z,10.22
2019-04-29T17:23:02.539Z,10.21
2019-04-29T17:25:34.368Z,10.11
2019-04-29T17:28:12.189Z,10.09
2019-04-29T17:31:08.199Z,10.09
2019-04-29T17:33:50.068Z,10.09
2019-04-29T17:36:23.797Z,10.05
2019-04-29T17:38:54.068Z,9.93
2019-04-29T17:41:25.497Z,9.88
2019-04-29T17:44:04.414Z,9.89
2019-04-29T17:46:37.730Z,9.93
2019-04-29T17:49:14.473Z,9.86
2019-04-29T17:51:46.117Z,9.96
2019-04-29T17:54:25.532Z,9.86
2019-04-29T17:57:24.512Z,9.80
2019-04-29T17:59:40.784Z,9.75
2019-04-29T18:02:21.909Z,9.69
2019-04-29T18:04:57.315Z,9.80
2019-04-29T18:07:35.021Z,9.32
2019-04-29T18:10:24.111Z,9.10
2019-04-29T18:12:53.207Z,9.10
2019-04-29T18:15:27.061Z,9.03
2019-04-29T18:18:00.421Z,8.96
2019-04-29T18:20:35.803Z,8.97
2019-04-29T18:23:25.855Z,8.97
2019-04-29T18:25:59.230Z,8.98
2019-04-29T18:28:31.225Z,8.94
2019-04-29T18:31:05.907Z,8.96
2019-04-29T18:33:37.921Z,8.98
2019-04-29T18:36:19.478Z,8.94
2019-04-29T18:38:48.763Z,8.91
2019-04-29T18:41:24.940Z,8.93
2019-04-29T18:43:57.818Z,8.96
2019-04-29T18:46:25.912Z,8.98
2019-04-29T18:49:03.114Z,8.94
2019-04-29T18:51:30.767Z,8.96
2019-04-29T18:54:03.006Z,8.94
2019-04-29T18:56:36.355Z,8.97
2019-04-29T18:59:07.615Z,8.97
2019-04-29T19:01:39.612Z,9.03
2019-04-29T19:04:16.766Z,8.93
2019-04-29T19:06:46.533Z,8.99
2019-04-29T19:09:20.755Z,9.01
2019-04-29T19:11:53.228Z,8.99
2019-04-29T19:14:28.273Z,9.00
2019-04-29T19:17:01.477Z,9.02
2019-04-29T19:19:37.813Z,8.96
2019-04-29T19:22:09.393Z,8.93
2019-04-29T19:24:40.819Z,8.90
2019-04-29T19:27:12.795Z,8.93
2019-04-29T19:29:44.942Z,8.92
2019-04-29T19:32:18.980Z,8.95
2019-04-29T19:34:54.961Z,8.94
2019-04-29T19:37:31.998Z,8.96
2019-04-29T19:39:59.790Z,8.87
2019-04-29T19:42:35.983Z,8.80
2019-04-29T19:45:13.324Z,8.79
2019-04-29T19:47:40.902Z,8.84
2019-04-29T19:50:16.707Z,8.82
2019-04-29T19:52:47.802Z,8.82
2019-04-29T19:55:20.069Z,8.81
2019-04-29T19:57:52.685Z,8.84
2019-04-29T20:00:29.435Z,8.78
2019-04-29T20:02:58.960Z,8.79
2019-04-29T20:05:38.961Z,8.81
2019-04-29T20:08:07.631Z,8.80
2019-04-29T20:10:46.464Z,8.84
2019-04-29T20:13:14.089Z,8.84
2019-04-29T20:15:51.934Z,8.80
2019-04-29T20:18:41.405Z,8.75
2019-04-29T20:21:26.433Z,8.78
2019-04-29T20:23:54.864Z,8.81
2019-04-29T20:26:29.581Z,8.85
2019-04-29T20:29:00.215Z,8.75
2019-04-29T20:31:32.639Z,8.73
2019-04-29T20:34:06.206Z,8.67
2019-04-29T20:36:43.150Z,8.70
2019-04-29T20:39:22.824Z,8.45
2019-04-29T20:41:52.039Z,8.75
2019-04-29T20:44:24.695Z,8.74
2019-04-29T20:47:14.096Z,8.77
2019-04-29T20:49:34.945Z,8.69
2019-04-29T20:52:08.780Z,8.69
2019-04-29T20:54:41.042Z,8.73
2019-04-29T20:57:20.375Z,8.71
2019-04-29T20:59:50.442Z,8.74
2019-04-29T21:02:31.343Z,8.76
2019-04-29T21:04:57.788Z,8.77
2019-04-29T21:07:28.014Z,8.75
2019-04-29T21:10:03.913Z,8.74
2019-04-29T21:12:38.139Z,8.77
2019-04-29T21:15:14.952Z,8.76
2019-04-29T21:17:47.100Z,8.77
2019-04-29T21:20:19.246Z,8.66
2019-04-29T21:22:52.500Z,8.68
2019-04-29T21:25:29.514Z,8.61
2019-04-29T21:28:02.168Z,8.57
2019-04-29T21:30:42.357Z,8.59
2019-04-29T21:33:18.204Z,8.67
2019-04-29T21:35:49.559Z,8.72
2019-04-29T21:38:38.077Z,8.61
2019-04-29T21:41:15.487Z,8.63
2019-04-29T21:43:53.614Z,8.62
2019-04-29T21:46:25.663Z,8.67
2019-04-29T21:48:56.471Z,8.67
2019-04-29T21:51:28.404Z,8.68
2019-04-29T21:54:00.468Z,8.63
2019-04-29T21:56:32.562Z,8.71
2019-04-29T21:59:09.301Z,8.67
2019-04-29T22:01:38.281Z,8.60
2019-04-29T22:04:09.813Z,8.60
2019-04-29T22:06:41.613Z,8.61
2019-04-29T22:09:15.764Z,8.65
2019-04-29T22:11:47.703Z,8.70
2019-04-29T22:14:19.434Z,8.75
2019-04-29T22:16:54.249Z,8.78
2019-04-29T22:19:27.956Z,8.81
2019-04-29T22:22:01.499Z,8.77
2019-04-29T22:24:32.104Z,8.82
2019-04-29T22:27:07.634Z,8.81
2019-04-29T22:29:39.334Z,8.81
2019-04-29T22:32:14.657Z,8.80
2019-04-29T22:34:49.520Z,8.89
2019-04-29T22:37:20.866Z,8.89
2019-04-29T22:39:52.890Z,8.89
2019-04-29T22:42:29.565Z,8.93
2019-04-29T22:45:01.161Z,8.79
2019-04-29T22:47:32.987Z,8.82
2019-04-29T22:50:06.508Z,8.82
2019-04-29T22:52:38.237Z,8.77
2019-04-29T22:55:11.517Z,8.81
2019-04-29T22:57:44.903Z,8.84
2019-04-29T23:00:18.899Z,8.79
2019-04-29T23:02:50.991Z,8.75
2019-04-29T23:05:23.572Z,8.85
2019-04-29T23:08:00.086Z,8.81
2019-04-29T23:10:30.430Z,8.84
2019-04-29T23:13:02.024Z,8.93
2019-04-29T23:15:35.874Z,8.84
2019-04-29T23:18:09.224Z,8.90
2019-04-29T23:20:51.839Z,8.91
2019-04-29T23:23:29.118Z,8.87
2019-04-29T23:25:59.926Z,8.90
2019-04-29T23:28:32.337Z,8.92
2019-04-29T23:31:04.433Z,8.98
2019-04-29T23:33:36.968Z,8.96
2019-04-29T23:36:09.741Z,9.09
2019-04-29T23:38:44.104Z,9.04
2019-04-29T23:41:16.348Z,9.13
2019-04-29T23:43:48.117Z,9.13
2019-04-29T23:46:20.119Z,9.06
2019-04-29T23:48:56.594Z,9.12
2019-04-29T23:51:27.436Z,9.16
2019-04-29T23:54:03.733Z,9.11
2019-04-29T23:56:38.593Z,9.11
2019-04-29T23:59:14.829Z,9.15
